createdAt,value
2018-06-19T00:00:53.693Z,97660.78
2018-06-19T00:05:50.407Z,97658.08
2018-06-19T00:10:47.212Z,97657.94
2018-06-19T00:15:43.948Z,97662.53
2018-06-19T00:20:40.806Z,97661.55
2018-06-19T00:25:37.637Z,97662.51
2018-06-19T00:30:34.436Z,97660.45
2018-06-19T00:35:31.154Z,97658.53
2018-06-19T00:40:27.943Z,97650.30
2018-06-19T00:45:24.732Z,97646.57
2018-06-19T00:50:21.482Z,97654.56
2018-06-19T00:55:18.190Z,97664.81
2018-06-19T01:00:14.966Z,97667.55
2018-06-19T01:05:11.598Z,97669.92
2018-06-19T01:10:08.365Z,97675.76
2018-06-19T01:15:05.217Z,97678.27
2018-06-19T01:20:02.221Z,97682.78
2018-06-19T01:24:58.881Z,97678.30
2018-06-19T01:29:55.655Z,97685.18
2018-06-19T01:34:52.383Z,97676.55
2018-06-19T01:39:49.103Z,97674.39
2018-06-19T01:44:45.781Z,97690.83
2018-06-19T01:49:42.541Z,97691.50
2018-06-19T01:54:39.254Z,97693.41
2018-06-19T01:59:36.007Z,97691.13
2018-06-19T02:04:32.701Z,97702.46
2018-06-19T02:09:29.434Z,97710.41
2018-06-19T02:14:26.272Z,97710.41
2018-06-19T02:19:23.029Z,97723.49
2018-06-19T02:24:19.765Z,97721.74
2018-06-19T02:29:16.498Z,97718.53
2018-06-19T02:34:13.134Z,97717.86
2018-06-19T02:39:12.747Z,97722.94
2018-06-19T02:44:09.810Z,97713.52
2018-06-19T02:49:06.506Z,97732.76
2018-06-19T02:54:03.401Z,97733.27
2018-06-19T02:59:00.229Z,97734.23
2018-06-19T03:03:57.355Z,97738.06
2018-06-19T03:08:54.131Z,97732.71
2018-06-19T03:13:50.973Z,97743.08
2018-06-19T03:18:47.710Z,97741.58
2018-06-19T03:23:44.523Z,97738.27
2018-06-19T03:28:41.182Z,97744.08
2018-06-19T03:33:37.977Z,97744.08
2018-06-19T03:38:34.778Z,97753.76
2018-06-19T03:43:31.503Z,97757.77
2018-06-19T03:48:28.177Z,97760.14
2018-06-19T03:53:24.903Z,97746.89
2018-06-19T03:58:21.709Z,97766.80
2018-06-19T04:03:18.884Z,97760.59
2018-06-19T04:08:15.601Z,97764.48
2018-06-19T04:13:12.312Z,97770.69
2018-06-19T04:18:09.282Z,97771.89
2018-06-19T04:23:06.231Z,97772.49
2018-06-19T04:28:02.891Z,97766.88
2018-06-19T04:32:58.892Z,97768.16
2018-06-19T04:37:55.740Z,97769.93
2018-06-19T04:42:52.579Z,97766.86
2018-06-19T04:47:49.280Z,97763.22
2018-06-19T04:52:46.012Z,97765.02
2018-06-19T04:57:42.818Z,97775.63
2018-06-19T05:02:40.004Z,97784.86
2018-06-19T05:07:35.934Z,97787.30
2018-06-19T05:12:32.708Z,97790.19
2018-06-19T05:17:29.447Z,97792.24
2018-06-19T05:22:26.210Z,97796.10
2018-06-19T05:27:24.808Z,97799.55
2018-06-19T05:32:21.768Z,97800.77
2018-06-19T05:37:18.452Z,97792.91
2018-06-19T05:42:15.149Z,97797.14
2018-06-19T05:47:14.190Z,97802.70
2018-06-19T05:52:10.895Z,97800.03
2018-06-19T05:57:07.649Z,97798.13
2018-06-19T06:02:04.525Z,97803.24
2018-06-19T06:07:01.159Z,97809.91
2018-06-19T06:11:57.832Z,97805.45
2018-06-19T06:16:54.469Z,97809.02
2018-06-19T06:21:51.415Z,97811.58
2018-06-19T06:26:48.366Z,97815.70
2018-06-19T06:31:45.106Z,97819.54
2018-06-19T06:36:41.843Z,97814.16
2018-06-19T06:41:45.163Z,97811.95
2018-06-19T06:46:43.689Z,97817.31
2018-06-19T06:51:40.249Z,97810.52
2018-06-19T06:56:44.356Z,97809.66
2018-06-19T07:01:43.937Z,97805.08
2018-06-19T07:06:40.508Z,97806.23
2018-06-19T07:11:37.479Z,97806.80
2018-06-19T07:16:40.430Z,97803.58
2018-06-19T07:21:47.187Z,97807.84
2018-06-19T07:26:43.882Z,97807.91
2018-06-19T07:31:40.262Z,97813.11
2018-06-19T07:36:37.969Z,97812.30
2018-06-19T07:41:34.772Z,97799.51
2018-06-19T07:46:30.562Z,97797.02
2018-06-19T07:51:26.373Z,97795.89
2018-06-19T07:56:22.499Z,97786.53
2018-06-19T08:01:18.566Z,97787.31
2018-06-19T08:06:19.748Z,97783.83
2018-06-19T08:11:16.246Z,97781.05
2018-06-19T08:16:14.936Z,97786.75
2018-06-19T08:21:11.864Z,97786.38
2018-06-19T08:26:18.885Z,97781.23
2018-06-19T08:31:14.569Z,97774.84
2018-06-19T08:36:13.938Z,97772.70
2018-06-19T08:41:18.825Z,97765.98
2018-06-19T08:46:15.763Z,97759.67
2018-06-19T08:51:10.982Z,97761.09
2018-06-19T08:56:07.956Z,97758.30
2018-06-19T09:01:05.888Z,97755.53
2018-06-19T09:06:01.727Z,97748.09
2018-06-19T09:10:57.504Z,97748.29
2018-06-19T09:15:53.263Z,97756.48
2018-06-19T09:20:48.782Z,97754.53
2018-06-19T09:25:44.540Z,97753.83
2018-06-19T09:30:52.458Z,97742.64
2018-06-19T09:35:47.888Z,97735.87
2018-06-19T09:40:43.360Z,97734.54
2018-06-19T09:45:38.761Z,97736.54
2018-06-19T09:50:34.204Z,97735.52
2018-06-19T09:55:30.747Z,97740.31
2018-06-19T10:00:34.586Z,97734.34
2018-06-19T10:05:30.973Z,97728.03
2018-06-19T10:10:26.282Z,97734.84
2018-06-19T10:15:21.701Z,97729.37
2018-06-19T10:20:16.935Z,97724.82
2018-06-19T10:25:12.234Z,97731.33
2018-06-19T10:30:07.984Z,97728.97
2018-06-19T10:35:03.488Z,97726.78
2018-06-19T10:39:58.817Z,97732.81
2018-06-19T10:44:55.018Z,97722.16
2018-06-19T10:49:50.070Z,97717.88
2018-06-19T10:54:45.822Z,97714.83
2018-06-19T10:59:40.959Z,97711.45
2018-06-19T11:04:36.031Z,97718.23
2018-06-19T11:09:31.265Z,97713.69
2018-06-19T11:14:30.604Z,97714.68
2018-06-19T11:19:26.244Z,97705.68
2018-06-19T11:24:21.682Z,97710.09
2018-06-19T11:29:17.159Z,97705.20
2018-06-19T11:34:12.722Z,97701.44
2018-06-19T11:39:14.407Z,97689.73
2018-06-19T11:44:08.880Z,97702.33
2018-06-19T11:49:03.482Z,97687.55
2018-06-19T11:53:58.900Z,97688.91
2018-06-19T11:58:54.186Z,97692.78
2018-06-19T12:03:49.793Z,97682.92
2018-06-19T12:08:48.910Z,97674.47
2018-06-19T12:13:43.888Z,97679.19
2018-06-19T12:18:41.265Z,97673.36
2018-06-19T12:23:39.056Z,97680.13
2018-06-19T12:28:35.058Z,97673.30
2018-06-19T12:33:37.052Z,97670.05
2018-06-19T12:38:33.566Z,97666.62
2018-06-19T12:43:30.061Z,97655.86
2018-06-19T12:48:30.157Z,97653.92
2018-06-19T12:53:41.801Z,97642.95
2018-06-19T12:58:36.217Z,97640.24
2018-06-19T13:03:47.836Z,97653.66
2018-06-19T13:08:43.945Z,97644.02
2018-06-19T13:13:49.775Z,97641.55
2018-06-19T13:19:01.459Z,97638.80
2018-06-19T13:24:07.176Z,97632.45
2018-06-19T13:29:54.911Z,97634.05
2018-06-19T13:35:01.023Z,97618.98
2018-06-19T13:41:23.837Z,97621.81
2018-06-19T13:46:27.870Z,97615.37
2018-06-19T13:51:31.393Z,97620.73
2018-06-19T13:57:49.464Z,97605.56
2018-06-19T14:02:56.591Z,97610.58
2018-06-19T14:08:19.813Z,97608.10
2018-06-19T14:13:26.232Z,97603.98
2018-06-19T14:18:34.509Z,97598.63
2018-06-19T14:23:40.646Z,97609.50
2018-06-19T14:28:44.973Z,97596.36
2018-06-19T14:33:48.557Z,97590.75
2018-06-19T14:38:53.701Z,97589.34
2018-06-19T14:43:59.924Z,97584.20
2018-06-19T14:49:07.875Z,97585.87
2018-06-19T14:54:13.480Z,97583.16
2018-06-19T14:59:20.722Z,97585.66
2018-06-19T15:04:24.748Z,97573.60
2018-06-19T15:09:19.530Z,97579.84
2018-06-19T15:14:13.981Z,97571.77
2018-06-19T15:19:08.509Z,97559.02
2018-06-19T15:24:07.024Z,97561.11
2018-06-19T15:29:06.778Z,97557.25
2018-06-19T15:34:01.906Z,97550.48
2018-06-19T15:38:56.320Z,97541.89
2018-06-19T15:43:50.744Z,97541.98
2018-06-19T15:48:45.247Z,97545.70
2018-06-19T15:53:39.810Z,97543.65
2018-06-19T15:58:34.623Z,97546.80
2018-06-19T16:03:29.066Z,97538.44
2018-06-19T16:08:23.765Z,97531.55
2018-06-19T16:13:18.484Z,97539.63
2018-06-19T16:18:13.804Z,97536.12
2018-06-19T16:23:08.436Z,97529.36
2018-06-19T16:28:03.009Z,97525.62
2018-06-19T16:32:57.689Z,97531.94
2018-06-19T16:37:52.248Z,97522.60
2018-06-19T16:42:46.701Z,97524.61
2018-06-19T16:47:41.242Z,97524.52
2018-06-19T16:52:35.762Z,97514.19
2018-06-19T16:57:31.540Z,97520.08
2018-06-19T17:02:25.984Z,97517.85
2018-06-19T17:07:20.447Z,97524.39
2018-06-19T17:12:14.897Z,97529.28
2018-06-19T17:17:09.412Z,97521.89
2018-06-19T17:22:04.985Z,97518.78
2018-06-19T17:26:59.394Z,97518.51
2018-06-19T17:31:53.964Z,97513.41
2018-06-19T17:36:48.437Z,97515.94
2018-06-19T17:41:42.893Z,97510.79
2018-06-19T17:46:37.356Z,97509.40
2018-06-19T17:51:31.780Z,97509.30
2018-06-19T17:56:26.307Z,97513.69
2018-06-19T18:01:20.757Z,97512.51
2018-06-19T18:06:15.169Z,97513.86
2018-06-19T18:11:09.628Z,97506.78
2018-06-19T18:16:04.062Z,97512.38
2018-06-19T18:20:58.519Z,97503.05
2018-06-19T18:25:52.941Z,97512.16
2018-06-19T18:30:47.689Z,97514.16
2018-06-19T18:35:43.204Z,97510.25
2018-06-19T18:40:37.629Z,97510.04
2018-06-19T18:45:32.223Z,97504.31
2018-06-19T18:50:26.665Z,97495.95
2018-06-19T18:55:21.061Z,97493.50
2018-06-19T19:00:15.537Z,97494.05
2018-06-19T19:05:10.077Z,97500.98
2018-06-19T19:10:10.521Z,97502.77
2018-06-19T19:15:10.404Z,97506.64
2018-06-19T19:20:04.896Z,97511.86
2018-06-19T19:24:59.436Z,97504.94
2018-06-19T19:29:53.940Z,97517.13
2018-06-19T19:34:48.459Z,97520.77
2018-06-19T19:39:42.928Z,97522.75
2018-06-19T19:44:37.090Z,97526.16
2018-06-19T19:49:31.508Z,97527.64
2018-06-19T19:54:26.080Z,97535.25
2018-06-19T19:59:20.574Z,97528.41
2018-06-19T20:04:15.462Z,97538.69
2018-06-19T20:09:10.453Z,97545.47
2018-06-19T20:14:05.138Z,97546.09
2018-06-19T20:18:59.567Z,97548.66
2018-06-19T20:23:54.045Z,97552.56
2018-06-19T20:28:48.454Z,97556.42
2018-06-19T20:33:43.813Z,97550.08
2018-06-19T20:38:38.280Z,97547.47
2018-06-19T20:43:32.805Z,97551.81
2018-06-19T20:48:27.290Z,97547.59
2018-06-19T20:53:21.681Z,97538.55
2018-06-19T20:58:16.376Z,97542.91
2018-06-19T21:03:10.962Z,97539.20
2018-06-19T21:08:05.924Z,97547.78
2018-06-19T21:13:00.412Z,97540.86
2018-06-19T21:17:54.856Z,97546.20
2018-06-19T21:22:49.376Z,97550.77
2018-06-19T21:27:43.781Z,97545.44
2018-06-19T21:32:38.218Z,97537.18
2018-06-19T21:37:32.621Z,97534.53
2018-06-19T21:42:27.068Z,97539.91
2018-06-19T21:47:21.728Z,97539.13
2018-06-19T21:52:16.312Z,97547.95
2018-06-19T21:57:10.881Z,97538.59
2018-06-19T22:02:05.578Z,97548.21
2018-06-19T22:07:00.050Z,97541.27
2018-06-19T22:11:54.527Z,97540.19
2018-06-19T22:16:48.942Z,97542.05
2018-06-19T22:21:43.379Z,97547.13
2018-06-19T22:26:37.810Z,97547.39
2018-06-19T22:31:32.231Z,97544.47
2018-06-19T22:36:26.937Z,97543.39
2018-06-19T22:41:21.725Z,97546.56
2018-06-19T22:46:16.167Z,97537.79
2018-06-19T22:51:10.643Z,97541.52
2018-06-19T22:56:05.157Z,97540.69
2018-06-19T23:00:59.584Z,97539.59
2018-06-19T23:05:54.005Z,97534.81
2018-06-19T23:10:48.441Z,97540.41
2018-06-19T23:15:42.829Z,97536.62
2018-06-19T23:20:37.257Z,97532.61
2018-06-19T23:25:31.661Z,97534.71
2018-06-19T23:30:26.069Z,97534.44
2018-06-19T23:35:20.488Z,97536.83
2018-06-19T23:40:14.943Z,97536.80
2018-06-19T23:45:09.359Z,97536.23
2018-06-19T23:50:03.655Z,97542.58
2018-06-19T23:54:58.090Z,97532.16
2018-06-19T23:59:52.572Z,97526.22
